Time;durP1;ratioP1;P1;durP2;ratioP2;P2;SDS_P1;SDS_P2;PMS_P1;PMS_P2;Temp;Humidity;BMP_temperature;BMP_pressure;BME280_temperature;BME280_humidity;BME280_pressure;Samples;Min_cycle;Max_cycle;Signal;HPM_P1;HPM_P2
2023/03/13 00:01:38;;;;;;;1.98;0.52;;;16.20;61.90;;;;;;4989591;28;45132;-70
2023/03/13 00:04:06;;;;;;;0.70;0.50;;;16.30;62.00;;;;;;4989110;28;45252;-70
2023/03/13 00:06:35;;;;;;;2.08;0.50;;;16.20;61.90;;;;;;4989004;28;45449;-70
2023/03/13 00:09:04;;;;;;;1.60;0.60;;;16.30;62.00;;;;;;4988869;28;45277;-70
2023/03/13 00:11:31;;;;;;;1.75;0.50;;;16.30;62.10;;;;;;4988723;28;45242;-71
2023/03/13 00:13:59;;;;;;;0.98;0.60;;;16.20;61.90;;;;;;4988929;28;45219;-70
2023/03/13 00:16:28;;;;;;;1.95;0.68;;;16.20;61.80;;;;;;4989122;28;45411;-70
2023/03/13 00:18:56;;;;;;;2.67;0.50;;;16.20;61.90;;;;;;4988751;28;45240;-71
2023/03/13 00:21:25;;;;;;;0.75;0.40;;;16.20;61.80;;;;;;4988858;28;45204;-70
2023/03/13 00:23:52;;;;;;;1.85;0.55;;;16.20;61.90;;;;;;4988717;28;45078;-71
2023/03/13 00:26:22;;;;;;;1.15;0.40;;;16.20;62.00;;;;;;4989043;28;45246;-71
2023/03/13 00:28:49;;;;;;;1.55;0.80;;;16.20;62.10;;;;;;4988804;28;46608;-70
2023/03/13 00:31:18;;;;;;;2.13;0.40;;;16.20;62.10;;;;;;4988777;28;45077;-70
2023/03/13 00:33:47;;;;;;;0.70;0.30;;;16.20;62.20;;;;;;4988869;28;45195;-70
2023/03/13 00:36:16;;;;;;;1.15;0.40;;;16.20;62.20;;;;;;4988864;28;45261;-70
2023/03/13 00:38:43;;;;;;;0.95;0.38;;;16.20;62.30;;;;;;4988342;28;46386;-70
2023/03/13 00:41:12;;;;;;;0.70;0.50;;;16.20;62.20;;;;;;4988108;28;45349;-70
2023/03/13 00:43:41;;;;;;;0.75;0.50;;;16.20;62.10;;;;;;4988762;28;45331;-70
2023/03/13 00:46:08;;;;;;;1.33;0.40;;;16.20;62.30;;;;;;4988309;28;45068;-71
2023/03/13 00:48:35;;;;;;;1.08;0.45;;;16.20;62.40;;;;;;4988387;28;47416;-71
2023/03/13 00:51:03;;;;;;;3.25;0.68;;;16.20;62.50;;;;;;4988212;28;45299;-70
2023/03/13 00:53:30;;;;;;;1.63;0.50;;;16.20;62.50;;;;;;4988341;28;45116;-70
2023/03/13 00:55:59;;;;;;;2.60;0.50;;;16.20;62.50;;;;;;4988589;28;45228;-70
2023/03/13 00:58:27;;;;;;;1.58;0.50;;;16.20;62.50;;;;;;4988095;28;47923;-70
2023/03/13 01:00:56;;;;;;;1.58;0.70;;;16.20;62.40;;;;;;4988415;28;45370;-70
2023/03/13 01:03:24;;;;;;;0.63;0.30;;;16.20;62.50;;;;;;4988075;28;45242;-70
2023/03/13 01:05:57;;;;;;;1.65;0.40;;;16.20;62.40;;;;;;4988073;28;45206;-70
2023/03/13 01:08:24;;;;;;;2.20;0.57;;;16.30;62.60;;;;;;4987871;28;46281;-70
2023/03/13 01:10:57;;;;;;;0.93;0.40;;;16.20;62.60;;;;;;4987946;28;45244;-70
2023/03/13 01:13:24;;;;;;;2.33;0.55;;;16.20;62.70;;;;;;4988619;28;45137;-70
2023/03/13 01:15:50;;;;;;;0.40;0.30;;;16.20;62.70;;;;;;4988321;28;45220;-70
2023/03/13 01:18:19;;;;;;;0.70;0.40;;;16.20;62.80;;;;;;4987883;28;45591;-70
2023/03/13 01:20:46;;;;;;;2.83;0.50;;;16.20;62.90;;;;;;4987664;28;46056;-70
2023/03/13 01:23:12;;;;;;;2.95;0.60;;;16.20;62.90;;;;;;4987834;28;45084;-70
2023/03/13 01:25:39;;;;;;;2.38;0.40;;;16.20;62.90;;;;;;4987910;28;45130;-70
2023/03/13 01:28:06;;;;;;;2.40;0.50;;;16.20;63.00;;;;;;4987696;28;45514;-70
2023/03/13 01:30:33;;;;;;;1.35;0.50;;;16.20;63.10;;;;;;4987527;28;45236;-70
2023/03/13 01:33:01;;;;;;;0.98;0.45;;;16.20;63.10;;;;;;4987984;28;45272;-70
2023/03/13 01:35:29;;;;;;;1.88;0.50;;;16.20;62.90;;;;;;4987676;28;45141;-70
2023/03/13 01:37:56;;;;;;;3.33;0.60;;;16.20;63.00;;;;;;4987637;28;45341;-70
2023/03/13 01:40:22;;;;;;;1.00;0.50;;;16.20;63.10;;;;;;4987367;28;45317;-70
2023/03/13 01:42:51;;;;;;;2.88;0.50;;;16.20;63.10;;;;;;4987592;28;45161;-70
2023/03/13 01:45:57;;;;;;;1.83;0.40;;;16.20;63.10;;;;;;4987640;28;45121;-70
2023/03/13 01:48:30;;;;;;;1.83;0.60;;;16.30;63.50;;;;;;4987243;28;46823;-70
2023/03/13 01:51:00;;;;;;;0.88;0.40;;;16.30;63.40;;;;;;4984264;28;45128;-70
2023/03/13 01:53:30;;;;;;;1.70;0.40;;;16.30;63.60;;;;;;4987336;28;45255;-70
2023/03/13 01:55:58;;;;;;;1.58;0.50;;;16.30;63.70;;;;;;4987798;28;45478;-70
2023/03/13 01:58:26;;;;;;;0.50;0.30;;;16.30;63.60;;;;;;4987182;28;47977;-70
2023/03/13 02:00:53;;;;;;;1.20;0.30;;;16.30;63.90;;;;;;4987088;28;45216;-70
2023/03/13 02:03:22;;;;;;;0.88;0.22;;;16.30;63.80;;;;;;4987408;28;45145;-70
2023/03/13 02:05:50;;;;;;;4.68;0.50;;;16.30;63.90;;;;;;4987383;28;45471;-70
2023/03/13 02:08:21;;;;;;;2.83;0.38;;;16.30;63.80;;;;;;4986988;28;46560;-70
2023/03/13 02:10:53;;;;;;;1.38;0.32;;;16.20;63.90;;;;;;4987149;28;45951;-70
2023/03/13 02:13:20;;;;;;;1.33;0.40;;;16.20;64.00;;;;;;4987382;28;45156;-70
2023/03/13 02:15:48;;;;;;;2.83;0.43;;;16.20;64.10;;;;;;4987592;28;45124;-70
2023/03/13 02:18:16;;;;;;;0.85;0.30;;;16.20;64.10;;;;;;4987260;28;45303;-70
2023/03/13 02:20:43;;;;;;;1.90;0.30;;;16.20;64.20;;;;;;4986783;28;45293;-70
2023/03/13 02:23:19;;;;;;;0.30;0.22;;;16.20;64.30;;;;;;4986963;28;45370;-70
2023/03/13 02:25:48;;;;;;;1.15;0.32;;;16.20;64.30;;;;;;4986997;28;45102;-70
2023/03/13 02:28:20;;;;;;;1.17;0.30;;;16.20;64.30;;;;;;4986743;28;45302;-70
2023/03/13 02:30:49;;;;;;;0.93;0.40;;;16.20;64.40;;;;;;4986936;28;45302;-70
2023/03/13 02:33:17;;;;;;;0.70;0.25;;;16.20;64.30;;;;;;4986965;28;45117;-70
2023/03/13 02:35:45;;;;;;;0.80;0.13;;;16.20;64.50;;;;;;4986839;28;45188;-70
2023/03/13 02:38:16;;;;;;;0.30;0.20;;;16.30;64.70;;;;;;4987304;28;47542;-69
2023/03/13 02:40:47;;;;;;;0.43;0.30;;;16.30;64.80;;;;;;4988565;28;46062;-70
2023/03/13 02:43:18;;;;;;;0.20;0.10;;;16.30;64.90;;;;;;4986971;28;45287;-70
2023/03/13 02:46:00;;;;;;;1.35;0.20;;;16.30;65.00;;;;;;4983962;28;45167;-70
2023/03/13 02:48:32;;;;;;;1.45;0.30;;;16.30;65.00;;;;;;4986427;28;46717;-70
2023/03/13 02:50:58;;;;;;;1.05;0.40;;;16.30;65.00;;;;;;4986574;28;45154;-70
2023/03/13 02:53:26;;;;;;;0.28;0.15;;;16.30;64.90;;;;;;4986889;28;45133;-70
2023/03/13 02:55:54;;;;;;;0.57;0.20;;;16.30;65.00;;;;;;4986740;28;45223;-70
2023/03/13 02:58:23;;;;;;;0.43;0.28;;;16.30;65.00;;;;;;4986236;28;47501;-70
2023/03/13 03:00:50;;;;;;;0.93;0.30;;;16.30;65.10;;;;;;4986142;28;45070;-70
2023/03/13 03:03:16;;;;;;;0.80;0.32;;;16.30;65.10;;;;;;4985529;28;45327;-70
2023/03/13 03:05:43;;;;;;;0.20;0.17;;;16.30;65.00;;;;;;4986322;28;45312;-70
2023/03/13 03:08:10;;;;;;;0.68;0.30;;;16.30;65.30;;;;;;4986128;28;46424;-70
2023/03/13 03:10:37;;;;;;;2.33;0.40;;;16.30;65.40;;;;;;4986087;28;45078;-70
2023/03/13 03:13:05;;;;;;;0.50;0.30;;;16.30;65.20;;;;;;4986292;28;45292;-70
2023/03/13 03:15:31;;;;;;;0.40;0.28;;;16.30;65.40;;;;;;4986216;28;45550;-70
2023/03/13 03:17:58;;;;;;;0.20;0.15;;;16.30;65.30;;;;;;4986089;28;46661;-70
2023/03/13 03:20:25;;;;;;;1.15;0.05;;;16.30;65.40;;;;;;4986256;28;45919;-70
2023/03/13 03:22:52;;;;;;;0.20;0.10;;;16.30;65.30;;;;;;4986235;28;45193;-70
2023/03/13 03:25:19;;;;;;;0.32;0.15;;;16.30;65.30;;;;;;4986270;28;45087;-70
2023/03/13 03:27:45;;;;;;;0.35;0.20;;;16.30;65.30;;;;;;4986056;28;47144;-70
2023/03/13 03:30:14;;;;;;;0.30;0.10;;;16.30;65.20;;;;;;4985829;28;45248;-70
2023/03/13 03:32:41;;;;;;;0.10;0.08;;;16.30;65.50;;;;;;4986297;28;45262;-70
2023/03/13 03:35:08;;;;;;;0.28;0.22;;;16.30;65.40;;;;;;4989560;28;45408;-70
2023/03/13 03:37:35;;;;;;;0.98;0.20;;;16.30;65.70;;;;;;4985923;28;48070;-70
2023/03/13 03:40:04;;;;;;;0.75;0.15;;;16.30;65.70;;;;;;4985150;28;45571;-70
2023/03/13 03:42:31;;;;;;;0.20;0.10;;;16.30;65.80;;;;;;4986088;28;45229;-70
2023/03/13 03:44:58;;;;;;;0.50;0.20;;;16.40;65.60;;;;;;4985770;28;45145;-70
2023/03/13 03:47:26;;;;;;;0.70;0.15;;;16.30;65.80;;;;;;4985815;28;46612;-70
2023/03/13 03:49:53;;;;;;;0.38;0.10;;;16.40;65.80;;;;;;4985754;28;46057;-70
2023/03/13 03:52:20;;;;;;;0.05;0.05;;;16.30;65.70;;;;;;4985971;28;45212;-70
2023/03/13 03:54:46;;;;;;;0.88;0.10;;;16.30;65.60;;;;;;4986012;28;45094;-70
2023/03/13 03:57:13;;;;;;;0.20;0.10;;;16.30;65.60;;;;;;4985496;28;45580;-70
2023/03/13 03:59:40;;;;;;;0.20;0.10;;;16.30;65.60;;;;;;4985651;28;45201;-70
2023/03/13 04:02:07;;;;;;;0.57;0.30;;;16.30;65.80;;;;;;4985937;28;45247;-70
2023/03/13 04:04:35;;;;;;;0.40;0.10;;;16.30;65.80;;;;;;4985959;28;45229;-70
2023/03/13 04:07:02;;;;;;;0.10;0.10;;;16.30;65.90;;;;;;4985609;28;47082;-70
2023/03/13 04:09:29;;;;;;;0.10;0.10;;;16.30;66.00;;;;;;4985994;28;45352;-70
2023/03/13 04:11:56;;;;;;;0.50;0.20;;;16.30;65.80;;;;;;4985793;28;45141;-70
2023/03/13 04:14:23;;;;;;;0.10;0.10;;;16.30;67.00;;;;;;4987032;28;45430;-70
2023/03/13 04:16:49;;;;;;;0.70;0.20;;;16.30;65.60;;;;;;4988723;28;46365;-70
2023/03/13 04:19:16;;;;;;;0.32;0.20;;;16.30;66.00;;;;;;4988730;28;45836;-70
2023/03/13 04:21:44;;;;;;;0.10;0.10;;;16.30;65.90;;;;;;4988909;28;45252;-70
2023/03/13 04:24:11;;;;;;;0.08;0.08;;;16.30;66.10;;;;;;4989088;28;45581;-70
2023/03/13 04:26:38;;;;;;;0.15;0.10;;;16.30;66.00;;;;;;4988978;28;45670;-70
2023/03/13 04:29:05;;;;;;;0.05;0.05;;;16.30;66.10;;;;;;4991160;28;45204;-70
2023/03/13 04:31:33;;;;;;;0.10;0.10;;;16.30;66.30;;;;;;4989349;28;45149;-70
2023/03/13 04:33:59;;;;;;;0.05;0.05;;;16.30;66.30;;;;;;4988972;28;45143;-70
2023/03/13 04:36:26;;;;;;;0.08;0.00;;;16.30;66.30;;;;;;4988479;28;47327;-70
2023/03/13 04:38:54;;;;;;;0.30;0.10;;;16.30;66.40;;;;;;4988436;28;45257;-70
2023/03/13 04:41:21;;;;;;;0.10;0.10;;;16.30;66.30;;;;;;4988359;28;45257;-70
2023/03/13 04:43:48;;;;;;;0.00;0.00;;;16.30;66.50;;;;;;4988680;28;45063;-71
2023/03/13 04:46:15;;;;;;;0.17;0.10;;;16.40;66.70;;;;;;4988052;28;47504;-70
2023/03/13 04:48:41;;;;;;;0.10;0.00;;;16.30;66.60;;;;;;4988421;28;45121;-71
2023/03/13 04:51:08;;;;;;;0.20;0.10;;;16.30;66.50;;;;;;4988532;28;45159;-70
2023/03/13 04:53:35;;;;;;;0.00;0.00;;;16.30;66.80;;;;;;4988522;28;45638;-70
2023/03/13 04:56:03;;;;;;;0.10;0.10;;;16.30;66.80;;;;;;4988422;28;47536;-71
2023/03/13 04:58:30;;;;;;;0.00;0.00;;;16.30;66.90;;;;;;4988265;28;45686;-70
2023/03/13 05:00:57;;;;;;;0.03;0.03;;;16.30;67.00;;;;;;4988488;28;45355;-70
2023/03/13 05:03:24;;;;;;;0.10;0.00;;;16.30;67.20;;;;;;4988432;28;45391;-71
2023/03/13 05:05:51;;;;;;;0.05;0.05;;;16.30;67.10;;;;;;4987879;28;47649;-70
2023/03/13 05:08:18;;;;;;;0.10;0.10;;;16.30;67.20;;;;;;4987878;28;45951;-71
2023/03/13 05:10:46;;;;;;;0.28;0.15;;;16.30;67.10;;;;;;4988247;28;45082;-70
2023/03/13 05:13:14;;;;;;;0.10;0.03;;;16.30;67.20;;;;;;4987912;28;45228;-70
2023/03/13 05:15:41;;;;;;;0.05;0.05;;;16.30;67.10;;;;;;4987783;28;46646;-71
2023/03/13 05:18:08;;;;;;;0.05;0.05;;;16.30;67.20;;;;;;4988108;28;45281;-70
2023/03/13 05:20:35;;;;;;;0.10;0.00;;;16.30;67.30;;;;;;4988100;28;45078;-70
2023/03/13 05:23:02;;;;;;;0.10;0.10;;;16.30;67.40;;;;;;4988510;28;45446;-70
2023/03/13 05:25:29;;;;;;;0.03;0.00;;;16.40;67.80;;;;;;4990121;28;45297;-71
2023/03/13 05:27:56;;;;;;;0.00;0.00;;;16.40;67.40;;;;;;4987463;28;45361;-70
2023/03/13 05:30:24;;;;;;;0.13;0.10;;;16.40;67.50;;;;;;4987829;28;45133;-70
2023/03/13 05:32:51;;;;;;;0.00;0.00;;;16.40;67.30;;;;;;4987787;28;45753;-70
2023/03/13 05:35:18;;;;;;;0.00;0.00;;;16.40;67.50;;;;;;4987448;28;46393;-70
2023/03/13 05:37:45;;;;;;;0.20;0.10;;;16.40;67.70;;;;;;4987709;28;45447;-70
2023/03/13 05:40:13;;;;;;;0.00;0.00;;;16.40;67.50;;;;;;4987717;28;45288;-71
2023/03/13 05:42:40;;;;;;;0.32;0.15;;;16.40;67.50;;;;;;4987877;28;45061;-70
2023/03/13 05:45:08;;;;;;;0.08;0.08;;;16.40;67.30;;;;;;4987568;28;45702;-70
2023/03/13 05:47:37;;;;;;;0.20;0.10;;;16.40;67.50;;;;;;4987724;28;45542;-70
2023/03/13 05:50:05;;;;;;;0.10;0.08;;;16.40;67.70;;;;;;4987659;28;45222;-70
2023/03/13 05:52:32;;;;;;;0.10;0.10;;;16.30;68.20;;;;;;4987547;28;45220;-70
2023/03/13 05:54:58;;;;;;;0.10;0.10;;;16.40;68.20;;;;;;4987243;28;45527;-70
2023/03/13 05:57:26;;;;;;;0.10;0.10;;;16.30;67.90;;;;;;4987486;28;45229;-70
2023/03/13 05:59:52;;;;;;;0.10;0.10;;;16.30;67.70;;;;;;4987408;28;45127;-70
2023/03/13 06:02:19;;;;;;;0.68;0.05;;;16.30;67.40;;;;;;4987261;28;45597;-70
2023/03/13 06:04:47;;;;;;;0.03;0.03;;;16.30;67.60;;;;;;4987312;28;48254;-70
2023/03/13 06:07:14;;;;;;;0.10;0.10;;;16.30;67.70;;;;;;4987030;28;45220;-70
2023/03/13 06:09:41;;;;;;;0.10;0.10;;;16.30;67.60;;;;;;4987167;28;45236;-70
2023/03/13 06:12:09;;;;;;;0.13;0.10;;;16.30;66.60;;;;;;4987707;28;45193;-70
2023/03/13 06:14:36;;;;;;;0.08;0.08;;;16.40;67.10;;;;;;4986848;28;48109;-70
2023/03/13 06:17:03;;;;;;;0.08;0.00;;;16.40;68.00;;;;;;4987528;28;45296;-70
2023/03/13 06:19:30;;;;;;;0.08;0.08;;;16.40;67.70;;;;;;4990142;28;45232;-70
2023/03/13 06:21:59;;;;;;;0.00;0.00;;;16.40;67.30;;;;;;4987555;28;45223;-70
2023/03/13 06:24:25;;;;;;;0.20;0.10;;;16.40;67.40;;;;;;4986885;28;46546;-70
2023/03/13 06:26:52;;;;;;;1.17;0.03;;;16.40;67.30;;;;;;4986865;28;45255;-70
2023/03/13 06:29:19;;;;;;;0.00;0.00;;;16.40;67.10;;;;;;4986819;28;45300;-70
2023/03/13 06:31:46;;;;;;;0.10;0.10;;;16.40;67.40;;;;;;4987154;28;45291;-69
2023/03/13 06:34:13;;;;;;;0.30;0.10;;;16.40;67.00;;;;;;4986921;28;47880;-69
2023/03/13 06:36:40;;;;;;;0.10;0.10;;;16.40;67.70;;;;;;4986720;28;45186;-69
2023/03/13 06:39:09;;;;;;;0.10;0.10;;;16.40;68.90;;;;;;4987118;28;45157;-69
2023/03/13 06:41:36;;;;;;;0.08;0.08;;;16.30;69.40;;;;;;4986631;28;45223;-70
2023/03/13 06:44:03;;;;;;;0.17;0.10;;;16.30;69.80;;;;;;4986467;28;46862;-70
2023/03/13 06:46:30;;;;;;;0.00;0.00;;;16.30;70.10;;;;;;4986391;28;46105;-70
2023/03/13 06:48:58;;;;;;;0.10;0.10;;;16.30;70.00;;;;;;4986807;28;45380;-70
2023/03/13 06:51:25;;;;;;;0.38;0.10;;;16.30;69.50;;;;;;4986664;28;45516;-70
2023/03/13 06:53:52;;;;;;;0.10;0.10;;;16.30;69.20;;;;;;4986312;28;46864;-70
2023/03/13 06:56:20;;;;;;;0.17;0.10;;;16.30;70.00;;;;;;4986258;28;45688;-70
2023/03/13 06:58:48;;;;;;;0.20;0.00;;;16.30;69.00;;;;;;4986660;28;45080;-70
2023/03/13 07:01:16;;;;;;;0.10;0.10;;;16.30;69.10;;;;;;4986389;28;45224;-70
2023/03/13 07:03:43;;;;;;;0.10;0.10;;;16.30;68.90;;;;;;4986387;28;45584;-70
2023/03/13 07:06:12;;;;;;;0.10;0.10;;;16.30;68.50;;;;;;4986147;28;45125;-70
2023/03/13 07:08:39;;;;;;;0.10;0.10;;;16.30;68.80;;;;;;4986547;28;45226;-70
2023/03/13 07:11:08;;;;;;;0.22;0.20;;;16.30;68.80;;;;;;4986533;28;45561;-70
2023/03/13 07:13:37;;;;;;;0.40;0.10;;;16.30;68.90;;;;;;4987611;28;47017;-70
2023/03/13 07:16:06;;;;;;;0.10;0.10;;;16.40;69.10;;;;;;4988022;28;45204;-71
2023/03/13 07:18:33;;;;;;;0.20;0.20;;;16.40;69.10;;;;;;4986438;28;45146;-70
2023/03/13 07:21:03;;;;;;;0.15;0.10;;;16.40;68.70;;;;;;4986646;28;45156;-70
2023/03/13 07:23:31;;;;;;;0.00;0.00;;;16.40;69.00;;;;;;4986187;28;45760;-70
2023/03/13 07:26:00;;;;;;;0.43;0.10;;;16.40;68.80;;;;;;4986337;28;45173;-70
2023/03/13 07:28:29;;;;;;;0.00;0.00;;;16.40;68.50;;;;;;4985999;28;45271;-70
2023/03/13 07:31:04;;;;;;;0.32;0.10;;;16.40;68.50;;;;;;4986317;28;45165;-70
2023/03/13 07:33:31;;;;;;;0.40;0.13;;;16.40;68.70;;;;;;4985919;28;46862;-70
2023/03/13 07:35:58;;;;;;;0.38;0.20;;;16.40;68.70;;;;;;4986042;28;45251;-70
2023/03/13 07:38:25;;;;;;;0.08;0.00;;;16.40;68.90;;;;;;4986436;28;45207;-70
2023/03/13 07:40:53;;;;;;;0.20;0.10;;;16.40;69.00;;;;;;4985549;28;45061;-70
2023/03/13 07:43:21;;;;;;;0.10;0.10;;;16.40;68.70;;;;;;4986055;28;45394;-70
2023/03/13 07:45:52;;;;;;;0.08;0.03;;;16.40;68.90;;;;;;4985627;28;45330;-70
2023/03/13 07:48:21;;;;;;;1.02;0.10;;;16.40;68.70;;;;;;4985830;28;45165;-70
2023/03/13 07:50:48;;;;;;;0.20;0.10;;;16.40;68.40;;;;;;4988766;28;45462;-70
2023/03/13 07:53:19;;;;;;;0.10;0.10;;;16.40;68.40;;;;;;4989542;28;45252;-70
2023/03/13 07:55:57;;;;;;;0.10;0.10;;;16.40;68.70;;;;;;4989151;28;45226;-70
2023/03/13 07:58:25;;;;;;;0.68;0.15;;;16.40;68.90;;;;;;4989379;28;45139;-71
2023/03/13 08:00:52;;;;;;;0.17;0.17;;;16.30;69.20;;;;;;4989340;28;45588;-71
2023/03/13 08:03:21;;;;;;;0.15;0.10;;;16.30;69.50;;;;;;4989241;28;45288;-71
2023/03/13 08:05:48;;;;;;;0.20;0.20;;;16.30;69.00;;;;;;4988807;28;45166;-71
2023/03/13 08:08:15;;;;;;;0.10;0.10;;;16.30;69.00;;;;;;4989407;28;45220;-71
2023/03/13 08:10:41;;;;;;;0.05;0.00;;;16.30;69.50;;;;;;4992135;28;45216;-70
2023/03/13 08:13:08;;;;;;;0.10;0.10;;;16.40;69.20;;;;;;4988699;28;46962;-71
2023/03/13 08:15:35;;;;;;;0.10;0.10;;;16.40;69.10;;;;;;4988696;28;45339;-71
2023/03/13 08:18:02;;;;;;;0.85;0.30;;;16.40;69.10;;;;;;4988931;28;45196;-70
2023/03/13 08:20:30;;;;;;;0.10;0.10;;;16.40;69.10;;;;;;4988805;28;45179;-70
2023/03/13 08:22:57;;;;;;;0.90;0.20;;;16.40;69.10;;;;;;4988616;28;48015;-70
2023/03/13 08:25:24;;;;;;;0.38;0.30;;;16.40;68.90;;;;;;4988538;28;45243;-70
2023/03/13 08:27:51;;;;;;;0.10;0.10;;;16.40;69.20;;;;;;4988658;28;45232;-71
2023/03/13 08:30:18;;;;;;;0.68;0.40;;;16.40;69.30;;;;;;4989002;28;45577;-70
2023/03/13 08:32:45;;;;;;;0.25;0.25;;;16.40;69.30;;;;;;4988403;28;46766;-70
2023/03/13 08:35:12;;;;;;;0.10;0.10;;;16.40;68.90;;;;;;4988811;28;45246;-70
2023/03/13 08:37:40;;;;;;;0.10;0.10;;;16.40;68.90;;;;;;4988751;28;45336;-71
2023/03/13 08:40:10;;;;;;;0.10;0.10;;;16.40;68.90;;;;;;4988515;28;45391;-71
2023/03/13 08:42:39;;;;;;;0.47;0.10;;;16.50;68.50;;;;;;4988178;28;47638;-71
2023/03/13 08:45:06;;;;;;;0.10;0.10;;;16.50;68.90;;;;;;4988359;28;45213;-71
2023/03/13 08:47:33;;;;;;;0.17;0.13;;;16.50;68.90;;;;;;4988429;28;45376;-71
2023/03/13 08:50:00;;;;;;;0.43;0.20;;;16.40;69.10;;;;;;4988353;28;45334;-71
2023/03/13 08:52:27;;;;;;;0.38;0.20;;;16.50;69.10;;;;;;4988284;28;45263;-71
2023/03/13 08:54:55;;;;;;;0.52;0.28;;;16.50;68.50;;;;;;4988193;28;45382;-71
2023/03/13 08:57:22;;;;;;;0.30;0.30;;;16.50;68.80;;;;;;4988248;28;45223;-71
2023/03/13 08:59:50;;;;;;;0.47;0.10;;;16.50;68.70;;;;;;4988283;28;45137;-71
2023/03/13 09:02:18;;;;;;;0.98;0.15;;;16.60;68.90;;;;;;4986733;28;46565;-70
2023/03/13 09:04:47;;;;;;;1.08;0.20;;;16.60;69.00;;;;;;4991112;28;45362;-71
2023/03/13 09:07:14;;;;;;;0.10;0.10;;;16.60;68.90;;;;;;4988537;28;45184;-71
2023/03/13 09:09:41;;;;;;;0.25;0.10;;;16.60;68.60;;;;;;4988419;28;45418;-71
2023/03/13 09:12:10;;;;;;;0.03;0.03;;;16.60;69.00;;;;;;4987777;28;48298;-71
2023/03/13 09:14:37;;;;;;;1.20;0.50;;;16.60;68.70;;;;;;4987764;28;45276;-71
2023/03/13 09:17:04;;;;;;;0.47;0.25;;;16.60;68.90;;;;;;4988222;28;45195;-71
2023/03/13 09:19:31;;;;;;;0.32;0.17;;;16.60;69.00;;;;;;4987942;28;45580;-71
2023/03/13 09:21:57;;;;;;;0.95;0.10;;;16.60;68.70;;;;;;4987617;28;46684;-71
2023/03/13 09:24:26;;;;;;;0.52;0.10;;;16.60;69.20;;;;;;4987715;28;45344;-71
2023/03/13 09:26:52;;;;;;;0.68;0.20;;;16.60;69.20;;;;;;4988047;28;45167;-71
2023/03/13 09:29:21;;;;;;;0.73;0.20;;;16.60;68.90;;;;;;4987753;28;45171;-71
2023/03/13 09:31:47;;;;;;;0.75;0.40;;;16.60;69.10;;;;;;4988227;28;45451;-71
2023/03/13 09:34:14;;;;;;;0.10;0.08;;;16.60;69.00;;;;;;4987586;28;45350;-71
2023/03/13 09:36:41;;;;;;;0.20;0.20;;;16.60;68.90;;;;;;4987951;28;45355;-71
2023/03/13 09:39:08;;;;;;;1.83;0.40;;;16.60;69.40;;;;;;4987908;28;45379;-71
2023/03/13 09:41:40;;;;;;;0.20;0.20;;;16.60;69.20;;;;;;4987423;28;46088;-71
2023/03/13 09:44:14;;;;;;;0.95;0.20;;;16.50;69.10;;;;;;4987803;28;45405;-71
2023/03/13 09:46:48;;;;;;;0.15;0.15;;;16.60;69.60;;;;;;4987740;28;45212;-71
2023/03/13 09:49:25;;;;;;;0.10;0.10;;;16.60;69.70;;;;;;4987414;28;45421;-71
2023/03/13 09:51:58;;;;;;;0.10;0.10;;;16.60;69.40;;;;;;4987210;28;46421;-71
2023/03/13 09:54:28;;;;;;;0.10;0.10;;;16.60;69.50;;;;;;4987665;28;45444;-71
2023/03/13 09:56:59;;;;;;;0.20;0.10;;;16.60;70.00;;;;;;4984778;28;45113;-71
2023/03/13 09:59:34;;;;;;;0.52;0.20;;;16.60;69.50;;;;;;4990567;28;45302;-70
2023/03/13 10:02:13;;;;;;;0.50;0.17;;;16.60;69.90;;;;;;4987176;28;45635;-74
2023/03/13 10:04:44;;;;;;;24.05;2.15;;;16.60;69.70;;;;;;4993491;28;45184;-74
2023/03/13 10:07:12;;;;;;;1.95;0.30;;;16.60;69.40;;;;;;4987430;28;45183;-74
2023/03/13 10:09:40;;;;;;;1.63;0.28;;;16.70;66.60;;;;;;4987483;28;45483;-73
2023/03/13 10:12:13;;;;;;;10.98;0.45;;;16.70;65.20;;;;;;4986910;28;45428;-74
2023/03/13 10:14:45;;;;;;;1.35;0.30;;;16.80;65.10;;;;;;4987357;28;45126;-74
2023/03/13 10:17:25;;;;;;;3.08;0.47;;;16.80;65.10;;;;;;4984334;28;45501;-75
2023/03/13 10:19:58;;;;;;;1.05;0.30;;;16.80;64.90;;;;;;4987447;28;45402;-74
2023/03/13 10:22:28;;;;;;;3.22;0.25;;;16.90;64.80;;;;;;4987270;28;48062;-74
2023/03/13 10:24:59;;;;;;;1.48;0.28;;;16.90;64.90;;;;;;4987006;28;45165;-74
2023/03/13 10:27:26;;;;;;;1.35;0.20;;;16.90;64.80;;;;;;4984020;28;45095;-74
2023/03/13 10:29:52;;;;;;;2.20;0.40;;;16.90;64.70;;;;;;4986902;28;45467;-74
2023/03/13 10:32:21;;;;;;;0.75;0.30;;;16.90;64.60;;;;;;4986855;28;45252;-74
2023/03/13 10:34:55;;;;;;;0.77;0.10;;;16.90;64.30;;;;;;4986666;28;45224;-74
2023/03/13 10:37:25;;;;;;;0.50;0.25;;;16.90;64.60;;;;;;4987212;28;45374;-75
2023/03/13 10:39:52;;;;;;;0.10;0.10;;;16.90;64.30;;;;;;4986588;28;45399;-75
2023/03/13 10:42:24;;;;;;;1.55;0.40;;;16.90;64.60;;;;;;4986451;28;46287;-75
2023/03/13 10:44:58;;;;;;;1.08;0.25;;;16.90;64.50;;;;;;4986738;28;45338;-74
2023/03/13 10:47:27;;;;;;;0.10;0.10;;;16.90;64.30;;;;;;4987157;28;45371;-74
2023/03/13 10:49:57;;;;;;;1.60;0.22;;;17.00;64.50;;;;;;4987063;28;45177;-74
2023/03/13 10:52:41;;;;;;;0.63;0.10;;;17.00;64.90;;;;;;4986755;28;48348;-74
2023/03/13 10:55:13;;;;;;;2.35;0.30;;;17.00;64.50;;;;;;4986755;28;45217;-75
2023/03/13 10:57:43;;;;;;;0.65;0.30;;;17.00;64.80;;;;;;4986765;28;45071;-75
2023/03/13 11:00:32;;;;;;;0.50;0.20;;;17.00;64.60;;;;;;4987157;28;45433;-74
2023/03/13 11:03:02;;;;;;;1.10;0.17;;;17.00;64.60;;;;;;4986457;28;46176;-74
2023/03/13 11:05:32;;;;;;;0.80;0.15;;;17.00;64.70;;;;;;4986417;28;45457;-74
2023/03/13 11:08:10;;;;;;;1.25;0.30;;;17.00;64.70;;;;;;4986646;28;45141;-75
2023/03/13 11:10:37;;;;;;;0.20;0.20;;;17.00;64.80;;;;;;4986642;28;45229;-74
2023/03/13 11:13:04;;;;;;;0.77;0.15;;;17.00;64.90;;;;;;4985992;28;48502;-74
2023/03/13 11:15:39;;;;;;;0.08;0.08;;;17.00;64.90;;;;;;4986386;28;45081;-74
2023/03/13 11:18:14;;;;;;;0.15;0.13;;;17.00;65.20;;;;;;4986712;28;45071;-74
2023/03/13 11:20:45;;;;;;;0.60;0.30;;;17.00;66.10;;;;;;4986205;28;45488;-74
2023/03/13 11:23:20;;;;;;;0.77;0.20;;;17.00;64.90;;;;;;4986494;28;45396;-73
2023/03/13 11:25:57;;;;;;;1.63;0.20;;;17.00;64.80;;;;;;4989198;28;45386;-73
2023/03/13 11:28:32;;;;;;;1.25;0.20;;;17.00;64.70;;;;;;4990026;28;45319;-73
2023/03/13 11:31:07;;;;;;;0.38;0.20;;;17.00;64.30;;;;;;4989877;28;45195;-73
2023/03/13 11:33:42;;;;;;;0.73;0.40;;;17.00;64.10;;;;;;4986952;28;45247;-73
2023/03/13 11:36:18;;;;;;;0.50;0.22;;;16.90;64.00;;;;;;4990148;28;45558;-73
2023/03/13 11:38:50;;;;;;;0.20;0.20;;;17.00;64.00;;;;;;4989781;28;45239;-74
2023/03/13 11:41:40;;;;;;;0.77;0.20;;;16.90;63.90;;;;;;4989047;28;45682;-74
2023/03/13 11:44:27;;;;;;;0.40;0.10;;;16.90;64.00;;;;;;4986840;28;46352;-74
2023/03/13 11:47:28;;;;;;;0.98;0.30;;;16.90;64.00;;;;;;4989774;28;45128;-75
2023/03/13 11:50:23;;;;;;;3.60;0.25;;;16.90;64.00;;;;;;4930244;28;45288;-73
2023/03/13 11:53:04;;;;;;;3.58;0.30;;;16.90;64.50;;;;;;4986050;28;45357;-73
2023/03/13 11:55:46;;;;;;;0.68;0.30;;;16.90;64.20;;;;;;4989266;28;46562;-74
2023/03/13 12:01:30;;;;;;;5.38;0.90;;;16.80;66.60;;;;;;4989256;28;45404;-73
2023/03/13 12:04:01;;;;;;;4.80;0.60;;;16.80;66.30;;;;;;4988925;28;45439;-73
2023/03/13 12:06:32;;;;;;;1.70;0.30;;;16.80;66.70;;;;;;4988730;28;45185;-73
2023/03/13 12:09:06;;;;;;;1.08;0.30;;;16.70;67.40;;;;;;4989235;28;45218;-74
2023/03/13 12:11:42;;;;;;;2.50;0.70;;;16.70;68.20;;;;;;4988959;28;45214;-73
2023/03/13 12:14:14;;;;;;;2.10;0.57;;;16.70;68.90;;;;;;4989304;28;45625;-73
2023/03/13 12:16:45;;;;;;;2.03;0.20;;;16.70;69.40;;;;;;4989108;28;45752;-73
2023/03/13 12:19:15;;;;;;;4.55;0.20;;;16.70;70.10;;;;;;4988976;28;45235;-73
2023/03/13 12:21:48;;;;;;;0.70;0.20;;;16.70;70.60;;;;;;4989146;28;45378;-73
2023/03/13 12:24:23;;;;;;;1.70;0.40;;;16.70;70.80;;;;;;4988803;28;45421;-73
2023/03/13 12:26:53;;;;;;;0.82;0.50;;;16.70;71.20;;;;;;4988536;28;48426;-73
2023/03/13 12:29:29;;;;;;;1.23;0.30;;;16.70;71.50;;;;;;4988640;28;45323;-73
2023/03/13 12:32:02;;;;;;;0.73;0.28;;;16.70;71.90;;;;;;4989082;28;45203;-73
2023/03/13 12:34:35;;;;;;;2.10;0.38;;;16.70;72.00;;;;;;4989157;28;45224;-73
2023/03/13 12:37:11;;;;;;;2.30;0.20;;;16.70;72.40;;;;;;4988137;28;46360;-74
2023/03/13 12:39:42;;;;;;;0.10;0.10;;;16.70;72.50;;;;;;4987897;28;45223;-74
2023/03/13 12:42:21;;;;;;;0.55;0.20;;;16.70;72.90;;;;;;4988511;28;45073;-73
2023/03/13 12:44:47;;;;;;;0.65;0.20;;;16.70;73.20;;;;;;4988886;28;45622;-73
2023/03/13 12:47:22;;;;;;;0.50;0.30;;;16.70;73.30;;;;;;4988267;28;48664;-73
2023/03/13 12:50:24;;;;;;;0.82;0.30;;;16.70;73.40;;;;;;4988498;28;45651;-73
2023/03/13 12:53:15;;;;;;;1.38;0.25;;;16.70;73.60;;;;;;4989024;28;45069;-73
2023/03/13 12:56:17;;;;;;;2.38;0.63;;;16.70;73.70;;;;;;4988588;28;45558;-73
2023/03/13 12:58:48;;;;;;;2.45;0.25;;;16.70;74.00;;;;;;4988322;28;45438;-73
2023/03/13 13:01:21;;;;;;;0.55;0.30;;;16.70;74.30;;;;;;4988369;28;45124;-73
2023/03/13 13:03:55;;;;;;;0.28;0.20;;;16.70;74.50;;;;;;4988559;28;45223;-73